Time;durP1;ratioP1;P1;durP2;ratioP2;P2;SDS_P1;SDS_P2;PMS_P1;PMS_P2;Temp;Humidity;BMP_temperature;BMP_pressure;BME280_temperature;BME280_humidity;BME280_pressure;Samples;Min_cycle;Max_cycle;Signal;HPM_P1;HPM_P2
2023/08/28 00:02:02;;;;;;;2.53;1.70;;;15.70;99.90;;;;;;4997406;28;20033;-35
2023/08/28 00:04:28;;;;;;;3.53;1.98;;;15.60;99.90;;;;;;5001267;28;20352;-34
2023/08/28 00:06:53;;;;;;;2.42;1.92;;;15.70;99.90;;;;;;4992660;28;20388;-36
2023/08/28 00:09:19;;;;;;;3.03;2.35;;;15.60;99.90;;;;;;4999126;28;20056;-33
2023/08/28 00:11:45;;;;;;;3.30;2.35;;;15.60;99.90;;;;;;4996468;28;20030;-34
2023/08/28 00:14:10;;;;;;;1.88;1.73;;;15.60;99.90;;;;;;4998214;28;20061;-35
2023/08/28 00:16:36;;;;;;;2.33;2.13;;;15.50;99.90;;;;;;4999603;28;20045;-35
2023/08/28 00:19:02;;;;;;;3.17;2.05;;;15.50;99.90;;;;;;4998750;28;20140;-33
2023/08/28 00:21:29;;;;;;;6.20;2.40;;;15.50;99.90;;;;;;5000732;28;20018;-39
2023/08/28 00:23:55;;;;;;;3.03;2.10;;;15.50;99.90;;;;;;4998572;28;20512;-39
2023/08/28 00:26:20;;;;;;;2.40;1.90;;;15.40;99.90;;;;;;4997613;28;20117;-36
2023/08/28 00:28:46;;;;;;;2.17;1.80;;;15.40;99.90;;;;;;4994027;28;20557;-36
2023/08/28 00:31:12;;;;;;;6.75;2.17;;;15.40;99.90;;;;;;4995639;28;20092;-39
2023/08/28 00:33:37;;;;;;;2.10;1.80;;;15.50;99.90;;;;;;4995063;28;20030;-38
2023/08/28 00:36:03;;;;;;;2.33;1.85;;;15.50;99.90;;;;;;4997267;28;20871;-39
2023/08/28 00:38:29;;;;;;;2.40;2.00;;;15.50;99.90;;;;;;4999346;28;20026;-37
2023/08/28 00:40:54;;;;;;;3.40;2.13;;;15.50;99.90;;;;;;4994087;28;20038;-39
2023/08/28 00:43:20;;;;;;;3.10;2.05;;;15.50;99.90;;;;;;4996904;28;20148;-38
2023/08/28 00:45:47;;;;;;;3.83;1.88;;;15.50;99.90;;;;;;4997942;28;20026;-39
2023/08/28 00:48:18;;;;;;;2.30;1.90;;;15.50;99.90;;;;;;4997072;28;20029;-39
2023/08/28 00:50:45;;;;;;;2.20;2.00;;;15.50;99.90;;;;;;4993961;28;20025;-39
2023/08/28 00:53:11;;;;;;;4.03;2.50;;;15.50;99.90;;;;;;5000147;28;20056;-39
2023/08/28 00:55:37;;;;;;;2.10;1.90;;;15.50;99.90;;;;;;4997290;28;20097;-37
2023/08/28 00:58:03;;;;;;;2.83;1.98;;;15.50;99.90;;;;;;4994387;28;20029;-36
2023/08/28 01:00:29;;;;;;;2.35;1.80;;;15.50;99.90;;;;;;4999029;28;20084;-38
2023/08/28 01:02:55;;;;;;;2.50;2.03;;;15.50;99.90;;;;;;4999248;28;20045;-41
2023/08/28 01:05:38;;;;;;;2.88;2.03;;;15.50;99.90;;;;;;4998037;28;20048;-39
2023/08/28 01:08:28;;;;;;;1.98;1.83;;;15.50;99.90;;;;;;4999795;28;20052;-37
2023/08/28 01:10:59;;;;;;;2.45;2.08;;;15.50;99.90;;;;;;4997216;28;20449;-40
2023/08/28 01:13:51;;;;;;;2.45;2.20;;;15.50;99.90;;;;;;4998076;28;20030;-39
2023/08/28 01:16:19;;;;;;;2.45;2.10;;;15.50;99.90;;;;;;5002571;28;20022;-39
2023/08/28 01:18:45;;;;;;;2.13;1.92;;;15.40;99.90;;;;;;4998787;28;20026;-38
2023/08/28 01:21:11;;;;;;;2.92;2.00;;;15.40;99.90;;;;;;4996547;28;20121;-41
2023/08/28 01:23:59;;;;;;;3.22;2.08;;;15.40;99.90;;;;;;4995028;28;20181;-39
2023/08/28 01:26:25;;;;;;;4.60;2.10;;;15.40;99.90;;;;;;5000751;28;20037;-36
2023/08/28 01:28:51;;;;;;;3.83;2.55;;;15.40;99.90;;;;;;4994421;28;20036;-38
2023/08/28 01:31:17;;;;;;;3.80;2.22;;;15.40;99.90;;;;;;4997800;28;20411;-32
2023/08/28 01:33:44;;;;;;;2.70;2.15;;;15.40;99.90;;;;;;4996831;28;20030;-38
2023/08/28 01:36:16;;;;;;;3.03;2.63;;;15.40;99.90;;;;;;4999507;28;20046;-40
2023/08/28 01:38:48;;;;;;;2.78;1.88;;;15.30;99.90;;;;;;4994379;28;20025;-33
2023/08/28 01:41:18;;;;;;;3.13;2.00;;;15.30;99.90;;;;;;4997802;28;20035;-41
2023/08/28 01:43:49;;;;;;;3.05;1.98;;;15.30;99.90;;;;;;5002782;28;20037;-40
2023/08/28 01:46:18;;;;;;;3.55;2.20;;;15.30;99.90;;;;;;5002176;28;20690;-39
2023/08/28 01:48:52;;;;;;;1.90;1.70;;;15.30;99.90;;;;;;4996496;28;20100;-40
2023/08/28 01:51:18;;;;;;;2.78;1.73;;;15.30;99.90;;;;;;5000208;28;20069;-41
2023/08/28 01:53:44;;;;;;;2.03;1.83;;;15.30;99.90;;;;;;4996043;28;20970;-41
2023/08/28 01:56:09;;;;;;;2.47;2.17;;;15.30;99.90;;;;;;4994669;28;20231;-39
2023/08/28 01:58:43;;;;;;;1.88;1.77;;;15.30;99.90;;;;;;4999501;28;20033;-38
2023/08/28 02:01:09;;;;;;;2.90;1.92;;;15.20;99.90;;;;;;4997905;28;20046;-39
2023/08/28 02:03:36;;;;;;;2.80;2.03;;;15.30;99.90;;;;;;4998712;28;20091;-39
2023/08/28 02:06:02;;;;;;;2.40;1.90;;;15.20;99.90;;;;;;4998273;28;20562;-40
2023/08/28 02:08:28;;;;;;;3.00;2.10;;;15.20;99.90;;;;;;4996595;28;20336;-35
2023/08/28 02:10:53;;;;;;;2.63;2.10;;;15.20;99.90;;;;;;4999482;28;20042;-40
2023/08/28 02:13:19;;;;;;;3.75;2.22;;;15.20;99.90;;;;;;4995984;28;20552;-35
2023/08/28 02:15:44;;;;;;;3.13;2.20;;;15.20;99.90;;;;;;4996064;28;20501;-38
2023/08/28 02:18:10;;;;;;;2.47;2.28;;;15.20;99.90;;;;;;4996012;28;20049;-36
2023/08/28 02:20:38;;;;;;;4.50;2.28;;;15.20;99.90;;;;;;5001509;28;20093;-40
2023/08/28 02:23:04;;;;;;;3.15;2.60;;;15.20;99.90;;;;;;4998037;28;20037;-38
2023/08/28 02:25:30;;;;;;;2.30;2.03;;;15.20;99.90;;;;;;4998227;28;20653;-36
2023/08/28 02:27:55;;;;;;;3.55;2.38;;;15.20;99.90;;;;;;5001892;28;20040;-37
2023/08/28 02:30:21;;;;;;;3.00;2.00;;;15.20;99.90;;;;;;5000363;28;20045;-39
2023/08/28 02:32:47;;;;;;;2.35;2.03;;;15.30;99.90;;;;;;5001773;28;20466;-38
2023/08/28 02:35:12;;;;;;;2.50;2.20;;;15.30;99.90;;;;;;5001227;28;20493;-38
2023/08/28 02:37:38;;;;;;;4.20;2.33;;;15.20;99.90;;;;;;4999589;28;20077;-35
2023/08/28 02:40:05;;;;;;;2.50;2.30;;;15.30;99.90;;;;;;5001818;28;20041;-37
2023/08/28 02:42:31;;;;;;;2.90;2.13;;;15.30;99.90;;;;;;5000777;28;20071;-35
2023/08/28 02:44:57;;;;;;;3.08;2.10;;;15.30;99.90;;;;;;5001263;28;20468;-34
2023/08/28 02:47:22;;;;;;;2.55;2.28;;;15.20;99.90;;;;;;5000979;28;20037;-33
2023/08/28 02:49:48;;;;;;;3.85;2.10;;;15.20;99.90;;;;;;4999581;28;20565;-35
2023/08/28 02:52:14;;;;;;;2.00;1.80;;;15.20;99.90;;;;;;5004255;28;20026;-33
2023/08/28 02:54:40;;;;;;;2.33;1.80;;;15.20;99.90;;;;;;5000959;28;20033;-34
2023/08/28 02:57:05;;;;;;;2.40;2.15;;;15.20;99.90;;;;;;5001175;28;20523;-34
2023/08/28 02:59:31;;;;;;;2.25;2.05;;;15.20;99.90;;;;;;5001890;28;20385;-32
2023/08/28 03:01:57;;;;;;;3.70;2.40;;;15.20;99.90;;;;;;5001599;28;20614;-33
2023/08/28 03:04:23;;;;;;;3.78;2.13;;;15.20;99.90;;;;;;5004374;28;20030;-35
2023/08/28 03:06:48;;;;;;;3.80;2.28;;;15.10;99.90;;;;;;5003117;28;20810;-37
2023/08/28 03:09:14;;;;;;;2.50;2.30;;;15.20;99.90;;;;;;4998293;28;20045;-38
2023/08/28 03:11:40;;;;;;;2.80;2.45;;;15.10;99.90;;;;;;4999179;28;20488;-36
2023/08/28 03:14:06;;;;;;;4.10;2.72;;;15.10;99.90;;;;;;5000295;28;20436;-33
2023/08/28 03:16:31;;;;;;;3.58;3.10;;;15.20;99.90;;;;;;5001178;28;20100;-33
2023/08/28 03:18:57;;;;;;;4.10;2.75;;;15.20;99.90;;;;;;5003561;28;20484;-35
2023/08/28 03:21:22;;;;;;;3.63;2.67;;;15.20;99.90;;;;;;4999626;28;20022;-40
2023/08/28 03:23:48;;;;;;;3.22;2.92;;;15.20;99.90;;;;;;5001671;28;20053;-32
2023/08/28 03:26:14;;;;;;;4.60;3.00;;;15.20;99.90;;;;;;5000218;28;20034;-35
2023/08/28 03:28:39;;;;;;;4.07;3.22;;;15.20;99.90;;;;;;5001886;28;20685;-33
2023/08/28 03:31:05;;;;;;;3.65;3.08;;;15.20;99.90;;;;;;5000037;28;20036;-36
2023/08/28 03:33:32;;;;;;;4.15;2.80;;;15.20;99.90;;;;;;4998219;28;20030;-35
2023/08/28 03:35:59;;;;;;;4.38;2.85;;;15.20;99.90;;;;;;5000044;28;20034;-35
2023/08/28 03:38:25;;;;;;;3.60;2.75;;;15.20;99.90;;;;;;4995645;28;20026;-32
2023/08/28 03:40:51;;;;;;;6.18;3.03;;;15.30;99.90;;;;;;5000694;28;20096;-37
2023/08/28 03:43:17;;;;;;;5.80;2.85;;;15.30;99.90;;;;;;5002396;28;20026;-32
2023/08/28 03:45:42;;;;;;;3.70;2.90;;;15.20;99.90;;;;;;5000241;28;20032;-32
2023/08/28 03:48:08;;;;;;;3.00;2.70;;;15.10;99.90;;;;;;4995829;28;20030;-33
2023/08/28 03:50:34;;;;;;;3.03;2.47;;;15.20;99.90;;;;;;5004482;28;20018;-35
2023/08/28 03:53:01;;;;;;;3.95;3.15;;;15.20;99.90;;;;;;5003950;28;20423;-32
2023/08/28 03:55:29;;;;;;;3.53;2.87;;;15.20;99.90;;;;;;5016088;28;20030;-31
2023/08/28 03:57:56;;;;;;;3.05;2.47;;;15.10;99.90;;;;;;4994165;28;20092;-33
2023/08/28 04:00:23;;;;;;;3.50;2.88;;;15.00;99.90;;;;;;5003423;28;20149;-31
2023/08/28 04:02:48;;;;;;;3.17;2.35;;;14.80;99.90;;;;;;5001638;28;20034;-32
2023/08/28 04:05:16;;;;;;;4.20;2.45;;;14.70;99.90;;;;;;4997239;28;20057;-30
2023/08/28 04:07:45;;;;;;;4.00;2.60;;;14.70;99.90;;;;;;5001097;28;20029;-34
2023/08/28 04:10:11;;;;;;;2.90;2.60;;;14.70;99.90;;;;;;4997731;28;20044;-36
2023/08/28 04:12:38;;;;;;;3.33;2.65;;;14.70;99.90;;;;;;4999815;28;20025;-34
2023/08/28 04:15:08;;;;;;;4.40;2.40;;;14.70;99.90;;;;;;5004662;28;20030;-31
2023/08/28 04:17:34;;;;;;;2.22;2.00;;;14.70;99.90;;;;;;4995769;28;20167;-31
2023/08/28 04:20:16;;;;;;;2.88;2.05;;;14.70;99.90;;;;;;5004690;28;20044;-35
2023/08/28 04:22:43;;;;;;;3.72;2.00;;;14.70;99.90;;;;;;5007901;28;20030;-31
2023/08/28 04:25:10;;;;;;;3.28;2.05;;;14.60;99.90;;;;;;4998913;28;20033;-30
2023/08/28 04:27:37;;;;;;;2.53;2.03;;;14.60;99.90;;;;;;4999413;28;20040;-33
2023/08/28 04:30:04;;;;;;;2.42;2.10;;;14.50;99.90;;;;;;4999631;28;20113;-33
2023/08/28 04:32:29;;;;;;;2.15;1.95;;;14.40;99.90;;;;;;4997661;28;20049;-38
2023/08/28 04:34:55;;;;;;;2.50;2.03;;;14.50;99.90;;;;;;5000442;28;20120;-38
2023/08/28 04:37:22;;;;;;;4.00;2.67;;;14.50;99.90;;;;;;5000081;28;20054;-35
2023/08/28 04:39:47;;;;;;;3.65;2.75;;;14.40;99.90;;;;;;5002428;28;20721;-40
2023/08/28 04:42:15;;;;;;;5.03;2.50;;;14.40;99.90;;;;;;5000473;28;20152;-40
2023/08/28 04:44:41;;;;;;;3.85;2.78;;;14.30;99.90;;;;;;4996860;28;20474;-39
2023/08/28 04:47:06;;;;;;;2.75;2.55;;;14.30;99.90;;;;;;5002165;28;20030;-36
2023/08/28 04:49:32;;;;;;;3.45;2.60;;;14.20;99.90;;;;;;5000819;28;20248;-39
2023/08/28 04:51:57;;;;;;;3.65;2.80;;;14.20;99.90;;;;;;5001580;28;20083;-39
2023/08/28 04:54:23;;;;;;;3.95;2.72;;;14.10;99.90;;;;;;5002759;28;20033;-38
2023/08/28 04:56:49;;;;;;;6.50;3.22;;;14.00;99.90;;;;;;4994041;28;20036;-35
2023/08/28 04:59:14;;;;;;;5.25;3.03;;;14.00;99.90;;;;;;4991051;28;20542;-39
2023/08/28 05:01:40;;;;;;;3.35;2.95;;;13.90;99.90;;;;;;4993512;28;20150;-39
2023/08/28 05:04:06;;;;;;;3.40;3.10;;;13.90;99.90;;;;;;4994660;28;20034;-38
2023/08/28 05:06:32;;;;;;;4.22;2.97;;;13.90;99.90;;;;;;4996542;28;20172;-37
2023/08/28 05:08:57;;;;;;;4.63;3.08;;;13.90;99.90;;;;;;4992029;28;20480;-39
2023/08/28 05:11:23;;;;;;;3.25;2.95;;;13.80;99.90;;;;;;4993110;28;20144;-39
2023/08/28 05:13:49;;;;;;;4.53;3.42;;;13.80;99.90;;;;;;4998851;28;20523;-39
2023/08/28 05:16:14;;;;;;;4.38;2.80;;;13.80;99.90;;;;;;5004981;28;20022;-40
2023/08/28 05:18:40;;;;;;;4.55;3.55;;;13.80;99.90;;;;;;4999521;28;20037;-38
2023/08/28 05:21:06;;;;;;;7.05;4.00;;;13.80;99.90;;;;;;5001774;28;20034;-39
2023/08/28 05:23:32;;;;;;;5.22;3.40;;;13.80;99.90;;;;;;5000169;28;20079;-36
2023/08/28 05:25:58;;;;;;;4.28;3.20;;;13.80;99.90;;;;;;4995569;28;20126;-38
2023/08/28 05:28:23;;;;;;;4.15;3.60;;;13.80;99.90;;;;;;4993616;28;20033;-38
2023/08/28 05:30:49;;;;;;;7.15;4.13;;;13.80;99.90;;;;;;4990491;28;20534;-37
2023/08/28 05:33:15;;;;;;;6.20;4.30;;;13.80;99.90;;;;;;4996577;28;20029;-37
2023/08/28 05:35:42;;;;;;;6.63;3.80;;;13.80;99.90;;;;;;4995277;28;20038;-34
2023/08/28 05:38:07;;;;;;;6.68;3.78;;;13.80;99.90;;;;;;4991606;28;20352;-36
2023/08/28 05:40:33;;;;;;;6.15;4.32;;;13.80;99.90;;;;;;4993976;28;20095;-39
2023/08/28 05:42:59;;;;;;;5.47;3.95;;;13.80;99.90;;;;;;4995581;28;20072;-33
2023/08/28 05:45:25;;;;;;;8.27;4.82;;;13.80;99.90;;;;;;5000140;28;20112;-30
2023/08/28 05:47:51;;;;;;;4.97;4.03;;;13.80;99.90;;;;;;4996725;28;20113;-31
2023/08/28 05:50:18;;;;;;;6.50;4.55;;;13.80;99.90;;;;;;5001327;28;20079;-30
2023/08/28 05:52:47;;;;;;;7.65;4.72;;;13.80;99.90;;;;;;4995514;28;20021;-34
2023/08/28 05:55:13;;;;;;;7.57;4.75;;;13.80;99.90;;;;;;4999061;28;20034;-34
2023/08/28 05:57:41;;;;;;;6.72;4.50;;;13.80;99.90;;;;;;4993721;28;20104;-33
2023/08/28 06:00:08;;;;;;;9.05;5.18;;;13.90;99.90;;;;;;4999089;28;20037;-32
2023/08/28 06:02:34;;;;;;;7.15;4.97;;;13.90;99.90;;;;;;4999607;28;20156;-35
2023/08/28 06:05:02;;;;;;;7.68;5.05;;;13.80;99.90;;;;;;4995475;28;20849;-30
2023/08/28 06:07:29;;;;;;;5.65;4.60;;;13.90;99.90;;;;;;4989116;28;20356;-32
2023/08/28 06:09:55;;;;;;;8.60;5.07;;;13.90;99.90;;;;;;4992151;28;20061;-32
2023/08/28 06:12:21;;;;;;;6.53;4.82;;;13.90;99.90;;;;;;4994588;28;20030;-36
2023/08/28 06:14:46;;;;;;;7.40;5.00;;;13.90;99.90;;;;;;4990997;28;20037;-40
2023/08/28 06:17:12;;;;;;;6.28;4.80;;;13.90;99.90;;;;;;4993614;28;20025;-38
2023/08/28 06:19:37;;;;;;;5.90;4.50;;;13.90;99.90;;;;;;4990182;28;20277;-35
2023/08/28 06:22:04;;;;;;;6.40;4.68;;;13.80;99.90;;;;;;4994716;28;20384;-37
2023/08/28 06:24:31;;;;;;;6.82;4.57;;;13.80;99.90;;;;;;4996087;28;20030;-38
2023/08/28 06:26:57;;;;;;;6.28;4.65;;;13.90;99.90;;;;;;4993664;28;20029;-35
2023/08/28 06:29:23;;;;;;;6.07;4.43;;;13.90;99.90;;;;;;4994974;28;20022;-37
2023/08/28 06:31:48;;;;;;;5.10;4.20;;;13.80;99.90;;;;;;4996639;28;20086;-36
2023/08/28 06:34:14;;;;;;;5.85;4.28;;;13.80;99.90;;;;;;4992654;28;20065;-38
2023/08/28 06:36:40;;;;;;;5.18;4.38;;;13.80;99.90;;;;;;4996106;28;20042;-39
2023/08/28 06:39:07;;;;;;;8.80;4.78;;;13.90;99.90;;;;;;4993801;28;20030;-37
2023/08/28 06:41:32;;;;;;;5.47;4.53;;;13.80;99.90;;;;;;4992359;28;20253;-36
2023/08/28 06:43:58;;;;;;;7.32;4.28;;;13.80;99.90;;;;;;4992025;28;20038;-37
2023/08/28 06:46:24;;;;;;;5.78;4.50;;;13.80;99.90;;;;;;4991687;28;20498;-37
2023/08/28 06:48:52;;;;;;;5.93;4.38;;;13.80;99.90;;;;;;4990779;28;20066;-39
2023/08/28 06:51:19;;;;;;;;;;;13.80;99.90;;;;;;4989762;28;21239;-36
2023/08/28 06:53:44;;;;;;;6.43;4.35;;;13.80;99.90;;;;;;4999719;28;19909;-32
2023/08/28 06:56:10;;;;;;;6.85;4.72;;;13.90;99.90;;;;;;4994815;28;20068;-32
2023/08/28 06:58:36;;;;;;;9.80;5.47;;;13.80;99.90;;;;;;4997203;28;20423;-29
2023/08/28 07:01:06;;;;;;;7.80;5.25;;;13.90;99.90;;;;;;5002429;28;20148;-30
2023/08/28 07:03:32;;;;;;;6.20;4.90;;;13.80;99.90;;;;;;4994100;28;20120;-39
2023/08/28 07:05:57;;;;;;;7.47;5.05;;;13.80;99.90;;;;;;4990520;28;20040;-37
2023/08/28 07:08:23;;;;;;;6.53;5.13;;;13.80;99.90;;;;;;4988679;28;20146;-36
2023/08/28 07:10:48;;;;;;;6.78;5.10;;;13.80;99.90;;;;;;4997112;28;20500;-38
2023/08/28 07:13:14;;;;;;;6.28;5.10;;;13.80;99.90;;;;;;4997235;28;20400;-32
2023/08/28 07:15:40;;;;;;;6.97;5.28;;;13.90;99.90;;;;;;4995458;28;20241;-34
2023/08/28 07:18:05;;;;;;;6.15;4.43;;;13.90;99.90;;;;;;4990809;28;20069;-35
2023/08/28 07:20:31;;;;;;;7.53;4.88;;;13.90;99.90;;;;;;4997460;28;20029;-35
2023/08/28 07:22:57;;;;;;;6.20;4.70;;;13.90;99.90;;;;;;4999424;28;20037;-34
2023/08/28 07:25:27;;;;;;;6.20;4.30;;;13.90;99.90;;;;;;4996732;28;20029;-30
2023/08/28 07:27:54;;;;;;;6.53;4.57;;;13.80;99.90;;;;;;4996123;28;20017;-30
2023/08/28 07:30:20;;;;;;;5.88;4.35;;;13.80;99.90;;;;;;4996556;28;20030;-33
2023/08/28 07:32:46;;;;;;;5.35;4.03;;;13.90;99.90;;;;;;4993348;28;20033;-31
2023/08/28 07:35:13;;;;;;;5.38;4.68;;;13.80;99.90;;;;;;4992523;28;20061;-31
2023/08/28 07:37:40;;;;;;;5.68;4.72;;;13.80;99.90;;;;;;4991701;28;20050;-36
2023/08/28 07:40:06;;;;;;;7.10;4.88;;;13.80;99.90;;;;;;4998383;28;20034;-34
2023/08/28 07:42:36;;;;;;;5.63;4.82;;;13.80;99.90;;;;;;5001509;28;20272;-34
2023/08/28 07:45:02;;;;;;;5.00;4.50;;;13.80;99.90;;;;;;4997393;28;20121;-31
2023/08/28 07:47:28;;;;;;;5.57;4.97;;;13.80;99.90;;;;;;4991014;28;20029;-32
2023/08/28 07:49:54;;;;;;;4.97;4.28;;;13.80;99.90;;;;;;4997177;28;20037;-33
2023/08/28 07:52:20;;;;;;;6.00;4.53;;;13.80;99.90;;;;;;5000346;28;20357;-34
2023/08/28 07:54:46;;;;;;;5.68;4.50;;;13.80;99.90;;;;;;4996811;28;20604;-31
2023/08/28 07:57:12;;;;;;;5.93;4.82;;;13.80;99.90;;;;;;4993643;28;21819;-30
2023/08/28 07:59:39;;;;;;;5.55;3.67;;;13.90;99.90;;;;;;4998097;28;20117;-31
2023/08/28 08:02:05;;;;;;;5.05;4.13;;;13.90;99.90;;;;;;4994517;28;20041;-32
2023/08/28 08:04:32;;;;;;;6.75;4.32;;;13.90;99.90;;;;;;4997288;28;20057;-31
2023/08/28 08:06:57;;;;;;;5.78;4.20;;;13.90;99.90;;;;;;5003603;28;20042;-31
2023/08/28 08:09:24;;;;;;;4.85;4.35;;;13.90;99.90;;;;;;4997364;28;21548;-36
2023/08/28 08:11:51;;;;;;;5.13;4.35;;;13.90;99.90;;;;;;4999338;28;20136;-30
2023/08/28 08:14:17;;;;;;;6.47;4.50;;;14.00;99.90;;;;;;5001743;28;20028;-31
2023/08/28 08:16:43;;;;;;;5.60;4.65;;;13.90;99.90;;;;;;5006545;28;20388;-34
2023/08/28 08:19:09;;;;;;;5.90;4.75;;;14.00;99.90;;;;;;5007347;28;20095;-33
2023/08/28 08:21:36;;;;;;;6.72;4.72;;;14.10;99.90;;;;;;5001785;28;20033;-31
2023/08/28 08:24:02;;;;;;;7.60;4.97;;;14.10;99.90;;;;;;5002698;28;20089;-34
2023/08/28 08:26:29;;;;;;;6.30;4.93;;;14.10;99.90;;;;;;4997191;28;20030;-33
2023/08/28 08:28:55;;;;;;;5.63;4.95;;;14.20;99.90;;;;;;5018236;28;20065;-31
2023/08/28 08:31:21;;;;;;;6.10;4.75;;;14.30;99.90;;;;;;5000804;28;20061;-39
2023/08/28 08:33:46;;;;;;;6.05;5.15;;;14.40;99.90;;;;;;4996566;28;20033;-40
2023/08/28 08:36:15;;;;;;;6.10;4.78;;;14.40;99.90;;;;;;4997383;28;20128;-39
2023/08/28 08:38:41;;;;;;;5.82;4.70;;;14.40;99.90;;;;;;4995340;28;20034;-40
2023/08/28 08:41:08;;;;;;;4.40;4.00;;;14.40;99.90;;;;;;4998976;28;20616;-35
2023/08/28 08:43:34;;;;;;;4.97;4.43;;;14.40;99.90;;;;;;4988918;28;20040;-38
2023/08/28 08:46:06;;;;;;;4.38;3.97;;;14.30;99.90;;;;;;4996140;28;20100;-39
2023/08/28 08:48:36;;;;;;;5.57;4.30;;;14.30;99.90;;;;;;4995845;28;20067;-38
2023/08/28 08:51:04;;;;;;;4.32;3.92;;;14.40;99.90;;;;;;4997547;28;20030;-39
2023/08/28 08:53:42;;;;;;;5.43;4.20;;;14.50;99.90;;;;;;4995502;28;20022;-39
2023/08/28 08:56:12;;;;;;;4.40;4.00;;;14.50;99.90;;;;;;4997448;28;20022;-38
2023/08/28 08:58:39;;;;;;;4.22;3.80;;;14.60;99.90;;;;;;4992670;28;20018;-41
2023/08/28 09:01:06;;;;;;;4.55;4.15;;;14.60;99.90;;;;;;4996122;28;20057;-39
2023/08/28 09:03:32;;;;;;;4.78;3.50;;;14.50;99.90;;;;;;4999574;28;20029;-42
2023/08/28 09:05:59;;;;;;;5.88;4.13;;;14.50;99.90;;;;;;5000993;28;20033;-38
2023/08/28 09:08:26;;;;;;;5.38;4.00;;;14.50;99.90;;;;;;4993456;28;20021;-41
2023/08/28 09:10:57;;;;;;;4.85;4.20;;;14.60;99.90;;;;;;4996382;28;20116;-41
2023/08/28 09:13:23;;;;;;;6.18;5.03;;;14.50;99.90;;;;;;4992366;28;20386;-39
2023/08/28 09:15:48;;;;;;;7.25;5.03;;;14.60;99.90;;;;;;4996541;28;20037;-36
2023/08/28 09:18:15;;;;;;;5.85;5.00;;;14.70;99.90;;;;;;4998408;28;20033;-38
2023/08/28 09:20:40;;;;;;;5.28;4.47;;;14.90;99.90;;;;;;4998165;28;20486;-39
2023/08/28 09:23:06;;;;;;;6.30;5.32;;;15.00;99.90;;;;;;4993479;28;20026;-38
2023/08/28 09:25:32;;;;;;;6.50;5.18;;;15.00;99.90;;;;;;4996497;28;20560;-36
2023/08/28 09:27:58;;;;;;;6.20;5.43;;;15.00;99.90;;;;;;4990941;28;22015;-37
2023/08/28 09:30:36;;;;;;;6.65;5.93;;;15.00;99.90;;;;;;4991188;28;20169;-40
2023/08/28 09:33:07;;;;;;;5.85;5.25;;;15.20;99.90;;;;;;4995860;28;20091;-35
2023/08/28 09:35:41;;;;;;;6.75;5.20;;;15.00;99.90;;;;;;4998911;28;20030;-36
2023/08/28 09:38:07;;;;;;;6.53;5.03;;;14.90;99.90;;;;;;4995080;28;20046;-39
2023/08/28 09:40:38;;;;;;;6.38;4.70;;;14.90;99.90;;;;;;4991589;28;20076;-40
2023/08/28 09:43:12;;;;;;;6.25;4.93;;;14.80;99.90;;;;;;4996393;28;20443;-39
2023/08/28 09:45:38;;;;;;;7.07;4.75;;;14.90;99.90;;;;;;4995101;28;20439;-39
2023/08/28 09:48:05;;;;;;;5.20;4.70;;;15.00;99.90;;;;;;4995863;28;20022;-40
2023/08/28 09:50:31;;;;;;;4.70;4.20;;;14.90;99.90;;;;;;4995844;28;20096;-37
2023/08/28 09:53:13;;;;;;;5.65;4.50;;;14.70;99.90;;;;;;4993397;28;20058;-39
2023/08/28 09:55:50;;;;;;;4.90;4.30;;;14.70;99.90;;;;;;4998767;28;20579;-40
2023/08/28 09:58:16;;;;;;;7.25;4.63;;;14.60;99.90;;;;;;4994836;28;20022;-39
2023/08/28 10:00:42;;;;;;;5.60;5.10;;;14.60;99.90;;;;;;4997701;28;20033;-35
2023/08/28 10:03:10;;;;;;;5.50;5.00;;;14.60;99.90;;;;;;4997773;28;20038;-38
2023/08/28 10:05:38;;;;;;;5.90;4.63;;;14.60;99.90;;;;;;4994097;28;20030;-39
2023/08/28 10:08:09;;;;;;;5.65;4.78;;;14.60;99.90;;;;;;4990466;28;20289;-35
2023/08/28 10:10:36;;;;;;;6.32;5.18;;;14.60;99.90;;;;;;4989813;28;20030;-40
2023/08/28 10:13:06;;;;;;;5.13;4.43;;;14.60;99.90;;;;;;4996866;28;20030;-39
2023/08/28 10:15:33;;;;;;;6.22;4.38;;;14.60;99.90;;;;;;4997928;28;20041;-39
2023/08/28 10:18:04;;;;;;;4.55;3.95;;;14.70;99.90;;;;;;4997259;28;20029;-38
2023/08/28 10:20:31;;;;;;;5.18;4.00;;;14.70;99.90;;;;;;4993831;28;20038;-35
2023/08/28 10:22:58;;;;;;;7.65;4.40;;;14.70;99.90;;;;;;4990546;28;20495;-38
2023/08/28 10:25:25;;;;;;;6.18;4.70;;;14.60;99.90;;;;;;4996331;28;20033;-40
2023/08/28 10:27:52;;;;;;;5.72;3.95;;;14.60;99.90;;;;;;4997241;28;20402;-40
2023/08/28 10:30:21;;;;;;;4.75;4.05;;;14.50;99.90;;;;;;4997078;28;20021;-36
2023/08/28 10:32:47;;;;;;;4.75;4.13;;;14.50;99.90;;;;;;4996675;28;20018;-38
2023/08/28 10:35:14;;;;;;;4.50;3.70;;;14.50;99.90;;;;;;4990885;28;20049;-38
2023/08/28 10:37:42;;;;;;;6.03;4.03;;;14.40;99.90;;;;;;4991739;28;20042;-34
2023/08/28 10:40:11;;;;;;;5.05;4.30;;;14.40;99.90;;;;;;4996126;28;20034;-32
2023/08/28 10:42:38;;;;;;;4.82;4.22;;;14.40;99.90;;;;;;4997591;28;20023;-34
2023/08/28 10:45:05;;;;;;;5.65;3.75;;;14.40;99.90;;;;;;4997334;28;20030;-32
2023/08/28 10:47:31;;;;;;;4.47;3.85;;;14.30;99.90;;;;;;5002336;28;20064;-34
2023/08/28 10:49:56;;;;;;;6.90;4.25;;;14.30;99.90;;;;;;5002483;28;20026;-34
2023/08/28 10:52:23;;;;;;;4.97;4.00;;;14.20;99.90;;;;;;4995538;28;20040;-35
2023/08/28 10:54:50;;;;;;;4.10;3.70;;;14.20;99.90;;;;;;4999694;28;20350;-35
2023/08/28 10:57:25;;;;;;;5.22;3.90;;;14.20;99.90;;;;;;5001677;28;20030;-34
2023/08/28 10:59:51;;;;;;;4.18;3.42;;;14.20;99.90;;;;;;5002426;28;20573;-37
2023/08/28 11:02:18;;;;;;;3.88;3.00;;;14.20;99.90;;;;;;4994778;28;20043;-33
2023/08/28 11:04:44;;;;;;;3.33;2.78;;;14.00;99.90;;;;;;5001245;28;20034;-33
2023/08/28 11:07:25;;;;;;;5.40;3.50;;;13.90;99.90;;;;;;5001994;28;20234;-33
2023/08/28 11:10:11;;;;;;;3.33;3.00;;;14.00;99.90;;;;;;5002768;28;20034;-32
2023/08/28 11:13:05;;;;;;;5.95;3.38;;;13.90;99.90;;;;;;4996712;28;20924;-34
2023/08/28 11:15:32;;;;;;;2.80;2.60;;;13.90;99.90;;;;;;4998242;28;20088;-33
2023/08/28 11:18:28;;;;;;;3.22;2.92;;;13.80;99.90;;;;;;4999249;28;20025;-32
2023/08/28 11:20:55;;;;;;;4.20;2.78;;;13.70;99.90;;;;;;4999182;28;20042;-32
2023/08/28 11:23:23;;;;;;;4.63;2.75;;;13.70;99.90;;;;;;4996849;28;20409;-33
2023/08/28 11:25:50;;;;;;;3.10;2.10;;;13.70;99.90;;;;;;5001599;28;20483;-35
2023/08/28 11:28:30;;;;;;;2.55;2.20;;;13.50;99.90;;;;;;4997565;28;20700;-35
2023/08/28 11:31:00;;;;;;;2.30;2.08;;;13.40;99.90;;;;;;4998195;28;20040;-32
2023/08/28 11:33:26;;;;;;;2.53;1.92;;;13.40;99.90;;;;;;4997012;28;20106;-33
2023/08/28 11:35:58;;;;;;;2.97;1.95;;;13.30;99.90;;;;;;5000842;28;20489;-33
2023/08/28 11:38:24;;;;;;;2.47;1.90;;;13.40;99.90;;;;;;5001529;28;20030;-34
2023/08/28 11:40:55;;;;;;;2.17;1.98;;;13.50;99.90;;;;;;5002093;28;20033;-35
2023/08/28 11:43:21;;;;;;;1.85;1.73;;;13.50;99.90;;;;;;4997774;28;20088;-33
2023/08/28 11:45:47;;;;;;;2.40;2.20;;;13.50;99.90;;;;;;4999485;28;20133;-33
2023/08/28 11:48:12;;;;;;;2.30;2.05;;;13.50;99.90;;;;;;5000785;28;20101;-36
2023/08/28 11:50:38;;;;;;;2.20;1.88;;;13.60;99.90;;;;;;4996775;28;20110;-36
2023/08/28 11:53:04;;;;;;;2.47;1.95;;;13.60;99.90;;;;;;4999625;28;20057;-34
2023/08/28 11:55:33;;;;;;;3.00;2.08;;;13.80;99.90;;;;;;5000649;28;20025;-34
2023/08/28 11:57:59;;;;;;;2.20;2.00;;;13.90;99.90;;;;;;4999606;28;20022;-33
2023/08/28 12:00:25;;;;;;;2.70;2.00;;;13.80;99.90;;;;;;4997271;28;20036;-32
2023/08/28 12:02:51;;;;;;;2.70;2.13;;;13.90;99.90;;;;;;4999009;28;20038;-39
2023/08/28 12:05:17;;;;;;;2.42;2.20;;;13.90;99.90;;;;;;4999217;28;20017;-37
2023/08/28 12:07:45;;;;;;;2.50;2.05;;;13.80;99.90;;;;;;4998939;28;20033;-37
2023/08/28 12:10:12;;;;;;;2.95;2.00;;;13.80;99.90;;;;;;4997393;28;20165;-37
2023/08/28 12:12:38;;;;;;;2.30;1.90;;;13.70;99.90;;;;;;4997313;28;20025;-37
2023/08/28 12:15:04;;;;;;;1.83;1.42;;;13.60;99.90;;;;;;4997323;28;20038;-38
2023/08/28 12:17:31;;;;;;;2.70;2.10;;;13.50;99.90;;;;;;5005340;28;20529;-37
2023/08/28 12:19:57;;;;;;;2.13;1.88;;;13.50;99.90;;;;;;4999367;28;20044;-39
2023/08/28 12:22:24;;;;;;;3.03;2.00;;;13.50;99.90;;;;;;4998952;28;20475;-37
2023/08/28 12:24:51;;;;;;;5.85;2.33;;;13.40;99.90;;;;;;4998027;28;20548;-36
2023/08/28 12:27:24;;;;;;;2.10;2.00;;;13.40;99.90;;;;;;4993230;28;20062;-39
2023/08/28 12:29:50;;;;;;;1.95;1.70;;;13.40;99.90;;;;;;5002692;28;20022;-38
2023/08/28 12:32:18;;;;;;;2.55;2.00;;;13.40;99.90;;;;;;4997249;28;20058;-36
2023/08/28 12:34:45;;;;;;;2.38;2.10;;;13.40;99.90;;;;;;4999173;28;20022;-38
2023/08/28 12:37:13;;;;;;;2.53;2.22;;;13.40;99.90;;;;;;4996630;28;20042;-40
2023/08/28 12:39:52;;;;;;;2.40;1.83;;;13.40;99.90;;;;;;4999369;28;20327;-40
2023/08/28 12:42:19;;;;;;;2.40;1.80;;;13.40;99.90;;;;;;4997153;28;20034;-37
2023/08/28 12:44:45;;;;;;;1.60;1.50;;;13.40;99.90;;;;;;4997439;28;20520;-38
2023/08/28 12:47:17;;;;;;;2.40;1.90;;;13.40;99.90;;;;;;4998384;28;20037;-38
2023/08/28 12:49:43;;;;;;;2.97;1.85;;;13.40;99.90;;;;;;4993978;28;20022;-39